logo
Rechercher aéroport 
image banner adimage banner adimage banner ad
image banner ad

FAMY - Mazzepa Bay

Situé à Mammesbury, South Africa

ICAO - FAMY, IATA -

Données fournies par Airmate  

Information générale

Coordonnées: S32°28'20" E28°39'2"
Élévation : 193 feet MSL.
 
Voir autres Aéroports à Western Cape

Données opérationnelles

Special qualification required
Heure actuelle UTC:
Heure actuelle locale:
Météo à : - ( 0 km )
METAR: KNLC 191456Z AUTO 32005KT 10SM CLR 20/01 A2983 RMK AO2 SLP099 T02000011 51013 $
Voir NOTAMs / SUP AIP / TFR affectant cet aéroport [VIEW]
Fréquences de communication: [VIEW]

Pistes:

Identifiant RWYQFULongueur (ft)Largeur (ft)SurfaceLDA (ft)
08170649SAND
26183°170649SAND

Coordonnées de l'aéroport

Adresse: Mammesbury South Africa

Vue satellite de FAMY